createdAt,value
2023-05-20T00:05:11.804Z,8.15
2023-05-20T00:08:18.901Z,8.04
2023-05-20T00:11:42.536Z,8.12
2023-05-20T00:15:03.720Z,8.00
2023-05-20T00:18:24.618Z,7.95
2023-05-20T00:21:54.307Z,7.91
2023-05-20T00:25:07.653Z,7.92
2023-05-20T00:28:16.228Z,7.88
2023-05-20T00:31:22.949Z,7.93
2023-05-20T00:34:28.932Z,7.92
2023-05-20T00:37:35.865Z,8.15
2023-05-20T00:40:41.868Z,8.23
2023-05-20T00:43:51.365Z,8.17
2023-05-20T00:46:59.044Z,8.10
2023-05-20T00:50:21.974Z,7.91
2023-05-20T00:53:54.040Z,8.02
2023-05-20T00:57:15.734Z,8.05
2023-05-20T01:00:39.492Z,7.97
2023-05-20T01:04:00.564Z,7.92
2023-05-20T01:07:10.249Z,7.94
2023-05-20T01:10:16.594Z,8.09
2023-05-20T01:13:49.525Z,8.02
2023-05-20T01:17:09.740Z,7.94
2023-05-20T01:20:19.183Z,8.05
2023-05-20T01:23:35.883Z,8.07
2023-05-20T01:26:44.141Z,8.18
2023-05-20T01:29:55.939Z,8.10
2023-05-20T01:33:10.990Z,8.12
2023-05-20T01:36:23.136Z,8.22
2023-05-20T01:39:37.634Z,8.20
2023-05-20T01:42:47.082Z,8.18
2023-05-20T01:45:53.433Z,8.27
2023-05-20T01:49:01.359Z,8.24
2023-05-20T01:52:08.878Z,8.31
2023-05-20T01:55:26.577Z,8.26
2023-05-20T01:58:32.441Z,8.18
2023-05-20T02:01:49.519Z,8.27
2023-05-20T02:04:58.122Z,8.23
2023-05-20T02:08:04.946Z,8.29
2023-05-20T02:11:13.735Z,8.18
2023-05-20T02:14:27.032Z,8.09
2023-05-20T02:17:36.649Z,7.97
2023-05-20T02:20:43.618Z,8.18
2023-05-20T02:23:50.864Z,8.30
2023-05-20T02:27:00.574Z,8.30
2023-05-20T02:30:06.933Z,8.12
2023-05-20T02:33:14.301Z,8.08
2023-05-20T02:36:26.302Z,8.18
2023-05-20T02:39:33.346Z,8.19
2023-05-20T02:42:42.132Z,8.18
2023-05-20T02:45:49.343Z,8.04
2023-05-20T02:48:55.542Z,7.98
2023-05-20T02:52:17.887Z,7.81
2023-05-20T02:55:40.224Z,7.77
2023-05-20T02:59:15.499Z,7.69
2023-05-20T03:02:36.850Z,7.72
2023-05-20T03:05:50.740Z,7.87
2023-05-20T03:08:59.644Z,7.86
2023-05-20T03:12:06.896Z,7.92
2023-05-20T03:15:15.753Z,8.06
2023-05-20T03:18:22.550Z,8.00
2023-05-20T03:21:44.196Z,8.05
2023-05-20T03:25:18.061Z,8.02
2023-05-20T03:28:40.341Z,7.97
2023-05-20T03:32:04.857Z,7.89
2023-05-20T03:35:36.746Z,8.19
2023-05-20T03:38:58.411Z,8.24
2023-05-20T03:42:05.308Z,8.17
2023-05-20T03:45:13.117Z,7.93
2023-05-20T03:48:34.019Z,7.96
2023-05-20T03:51:40.119Z,8.07
2023-05-20T03:54:51.474Z,8.12
2023-05-20T03:58:29.812Z,8.20
2023-05-20T04:05:41.608Z,8.19
2023-05-20T04:09:11.793Z,8.33
2023-05-20T04:12:33.582Z,8.16
2023-05-20T04:15:54.726Z,8.18
2023-05-20T04:19:03.113Z,8.25
2023-05-20T04:22:16.231Z,8.30
2023-05-20T04:25:23.381Z,8.43
2023-05-20T04:28:31.666Z,8.54
2023-05-20T04:31:38.835Z,8.57
2023-05-20T04:34:57.711Z,8.53
2023-05-20T04:38:07.802Z,8.68
2023-05-20T04:41:14.526Z,8.66
2023-05-20T04:44:21.390Z,8.72
2023-05-20T04:47:27.774Z,8.76
2023-05-20T04:50:48.982Z,8.93
2023-05-20T04:54:12.558Z,9.02
2023-05-20T04:57:34.868Z,9.08
2023-05-20T05:00:42.082Z,9.13
2023-05-20T05:03:50.536Z,9.17
2023-05-20T05:07:01.349Z,9.18
2023-05-20T05:10:11.920Z,9.22
2023-05-20T05:13:22.065Z,9.26
2023-05-20T05:16:28.654Z,9.26
2023-05-20T05:19:35.766Z,9.32
2023-05-20T05:22:57.382Z,9.33
2023-05-20T05:26:23.139Z,9.22
2023-05-20T05:29:45.362Z,9.31
2023-05-20T05:33:06.777Z,9.28
2023-05-20T05:36:28.929Z,9.39
2023-05-20T05:39:50.504Z,9.33
2023-05-20T05:43:14.369Z,9.50
2023-05-20T05:46:36.108Z,9.40
2023-05-20T05:50:00.156Z,9.62
2023-05-20T05:53:34.738Z,9.70
2023-05-20T05:56:56.996Z,9.68
2023-05-20T06:00:22.878Z,9.75
2023-05-20T06:03:45.970Z,9.76
2023-05-20T06:07:07.228Z,9.85
2023-05-20T06:10:28.200Z,9.96
2023-05-20T06:13:49.636Z,10.08
2023-05-20T06:17:13.339Z,10.18
2023-05-20T06:20:35.016Z,10.18
2023-05-20T06:23:57.200Z,10.14
2023-05-20T06:27:18.238Z,10.12
2023-05-20T06:30:39.083Z,10.40
2023-05-20T06:34:08.404Z,10.37
2023-05-20T06:37:30.358Z,10.53
2023-05-20T06:40:44.103Z,10.55
2023-05-20T06:43:53.438Z,10.68
2023-05-20T06:47:24.271Z,10.83
2023-05-20T06:50:34.965Z,10.99
2023-05-20T06:53:47.672Z,10.83
2023-05-20T06:56:54.384Z,11.20
2023-05-20T07:00:02.601Z,10.88
2023-05-20T07:03:26.717Z,11.18
2023-05-20T07:06:50.467Z,11.21
2023-05-20T07:10:12.977Z,11.16
2023-05-20T07:13:34.392Z,11.25
2023-05-20T07:16:55.365Z,11.20
2023-05-20T07:20:36.190Z,11.38
2023-05-20T07:24:04.267Z,11.54
2023-05-20T07:27:10.745Z,11.62
2023-05-20T07:30:17.760Z,11.52
2023-05-20T07:33:33.210Z,11.52
2023-05-20T07:36:40.285Z,11.52
2023-05-20T07:39:49.053Z,11.80
2023-05-20T07:42:57.488Z,12.18
2023-05-20T07:46:06.402Z,12.20
2023-05-20T07:49:13.552Z,12.24
2023-05-20T07:52:19.995Z,12.11
2023-05-20T07:55:36.546Z,12.39
2023-05-20T07:58:45.215Z,12.28
2023-05-20T08:01:52.479Z,12.23
2023-05-20T08:05:00.115Z,12.36
2023-05-20T08:08:07.920Z,12.61
2023-05-20T08:11:27.619Z,12.69
2023-05-20T08:14:35.141Z,13.03
2023-05-20T08:17:57.611Z,13.10
2023-05-20T08:21:19.442Z,13.30
2023-05-20T08:24:40.517Z,13.43
2023-05-20T08:28:06.303Z,13.58
2023-05-20T08:31:41.169Z,13.83
2023-05-20T08:35:03.902Z,14.00
2023-05-20T08:38:31.031Z,14.24
2023-05-20T08:41:52.988Z,14.32
2023-05-20T08:45:26.761Z,14.33
2023-05-20T08:48:50.005Z,14.51
2023-05-20T08:52:16.902Z,14.25
2023-05-20T08:55:47.043Z,14.41
2023-05-20T08:59:08.298Z,14.78
2023-05-20T09:02:31.836Z,14.54
2023-05-20T09:05:52.987Z,14.93
2023-05-20T09:09:15.074Z,14.87
2023-05-20T09:12:36.105Z,14.68
2023-05-20T09:15:57.860Z,15.00
2023-05-20T09:19:24.563Z,14.80
2023-05-20T09:22:45.951Z,14.58
2023-05-20T09:26:07.963Z,14.57
2023-05-20T09:29:29.874Z,14.76
2023-05-20T09:32:57.303Z,14.96
2023-05-20T09:36:22.491Z,14.98
2023-05-20T09:39:56.917Z,15.03
2023-05-20T09:43:07.570Z,14.81
2023-05-20T09:46:14.514Z,15.33
2023-05-20T09:49:23.102Z,16.21
2023-05-20T09:52:32.347Z,16.38
2023-05-20T09:55:41.476Z,16.90
2023-05-20T09:58:51.207Z,16.85
2023-05-20T10:02:12.549Z,16.91
2023-05-20T10:05:24.955Z,17.27
2023-05-20T10:09:08.724Z,17.81
2023-05-20T10:12:36.828Z,17.29
2023-05-20T10:16:00.909Z,18.32
2023-05-20T10:19:29.159Z,18.31
2023-05-20T10:22:36.202Z,17.64
2023-05-20T10:25:55.439Z,17.33
2023-05-20T10:29:02.361Z,17.51
2023-05-20T10:32:08.891Z,17.90
2023-05-20T10:35:15.795Z,18.45
2023-05-20T10:38:22.429Z,18.52
2023-05-20T10:41:35.165Z,18.83
2023-05-20T10:45:11.863Z,19.00
2023-05-20T10:48:29.428Z,19.12
2023-05-20T10:51:40.439Z,19.40
2023-05-20T10:54:50.154Z,19.54
2023-05-20T10:58:02.462Z,19.70
2023-05-20T11:01:09.676Z,19.42
2023-05-20T11:04:19.960Z,19.81
2023-05-20T11:07:31.427Z,19.88
2023-05-20T11:10:38.203Z,18.97
2023-05-20T11:13:47.835Z,18.09
2023-05-20T11:17:00.203Z,18.59
2023-05-20T11:20:08.098Z,19.35
2023-05-20T11:23:18.657Z,19.66
2023-05-20T11:26:25.697Z,19.37
2023-05-20T11:29:35.556Z,19.13
2023-05-20T11:32:42.671Z,19.45
2023-05-20T11:35:50.440Z,18.55
2023-05-20T11:38:57.364Z,18.38
2023-05-20T11:42:03.827Z,18.73
2023-05-20T11:45:28.558Z,18.11
2023-05-20T11:48:56.695Z,18.21
2023-05-20T11:52:17.860Z,18.27
2023-05-20T11:55:49.503Z,18.35
2023-05-20T11:59:13.758Z,18.57
2023-05-20T12:02:37.940Z,18.40
2023-05-20T12:05:45.264Z,19.40
2023-05-20T12:08:51.539Z,19.37
2023-05-20T12:12:20.616Z,18.88
2023-05-20T12:15:26.833Z,19.15
2023-05-20T12:18:36.526Z,19.40
2023-05-20T12:21:42.602Z,19.27
2023-05-20T12:24:52.232Z,19.26
2023-05-20T12:28:00.440Z,18.75
2023-05-20T12:31:21.511Z,18.30
2023-05-20T12:34:51.818Z,18.60
2023-05-20T12:38:14.931Z,18.87
2023-05-20T12:41:35.935Z,18.69
2023-05-20T12:44:56.965Z,18.73
2023-05-20T12:48:04.503Z,18.89
2023-05-20T12:51:13.053Z,18.55
2023-05-20T12:54:21.310Z,18.47
2023-05-20T12:57:31.828Z,18.54
2023-05-20T13:00:38.957Z,18.50
2023-05-20T13:03:45.177Z,18.23
2023-05-20T13:06:56.090Z,18.58
2023-05-20T13:10:02.475Z,18.39
2023-05-20T13:13:24.295Z,18.42
2023-05-20T13:16:45.371Z,18.60
2023-05-20T13:20:06.986Z,18.82
2023-05-20T13:23:30.430Z,19.16
2023-05-20T13:26:51.849Z,18.91
2023-05-20T13:30:02.163Z,19.04
2023-05-20T13:33:08.167Z,19.16
2023-05-20T13:36:15.991Z,19.12
2023-05-20T13:39:24.479Z,19.01
2023-05-20T13:42:31.942Z,18.87
2023-05-20T13:45:37.889Z,18.92
2023-05-20T13:48:44.783Z,18.88
2023-05-20T13:51:51.245Z,18.83
2023-05-20T13:55:02.918Z,18.71
2023-05-20T13:58:12.805Z,18.92
2023-05-20T14:05:19.226Z,19.31
2023-05-20T14:08:26.604Z,19.26
2023-05-20T14:11:54.242Z,19.36
2023-05-20T14:15:15.404Z,19.47
2023-05-20T14:18:36.464Z,19.21
2023-05-20T14:21:59.195Z,19.21
2023-05-20T14:25:20.521Z,19.22
2023-05-20T14:28:30.048Z,19.30
2023-05-20T14:31:36.074Z,19.42
2023-05-20T14:34:43.043Z,19.55
2023-05-20T14:37:49.166Z,19.58
2023-05-20T14:40:56.168Z,19.70
2023-05-20T14:44:04.881Z,19.79
2023-05-20T14:47:11.838Z,19.74
2023-05-20T14:50:17.966Z,20.09
2023-05-20T14:53:25.930Z,19.94
2023-05-20T14:56:31.960Z,19.89
2023-05-20T14:59:42.016Z,20.14
2023-05-20T15:02:48.095Z,19.98
2023-05-20T15:05:55.153Z,20.12
2023-05-20T15:09:01.201Z,20.27
2023-05-20T15:12:22.845Z,20.40
2023-05-20T15:15:32.141Z,20.29
2023-05-20T15:18:39.363Z,20.12
2023-05-20T15:21:45.442Z,20.13
2023-05-20T15:27:58.230Z,19.81
2023-05-20T15:31:07.754Z,20.09
2023-05-20T15:34:13.851Z,20.23
2023-05-20T15:37:21.852Z,20.12
2023-05-20T15:40:28.493Z,20.29
2023-05-20T15:43:35.591Z,20.29
2023-05-20T15:46:44.458Z,20.30
2023-05-20T15:49:51.806Z,20.43
2023-05-20T15:52:58.416Z,20.56
2023-05-20T15:56:10.838Z,20.52
2023-05-20T15:59:33.648Z,20.46
2023-05-20T16:03:00.036Z,20.34
2023-05-20T16:06:23.159Z,20.41
2023-05-20T16:09:44.091Z,20.33
2023-05-20T16:13:10.772Z,20.25
2023-05-20T16:16:33.201Z,20.13
2023-05-20T16:19:58.901Z,19.82
2023-05-20T16:23:19.863Z,19.90
2023-05-20T16:26:42.231Z,19.79
2023-05-20T16:30:03.352Z,19.80
2023-05-20T16:33:24.298Z,19.86
2023-05-20T16:36:48.220Z,19.70
2023-05-20T16:39:55.079Z,19.67
2023-05-20T16:43:05.076Z,19.51
2023-05-20T16:46:14.921Z,19.53
2023-05-20T16:49:20.996Z,19.62
2023-05-20T16:52:30.503Z,19.61
2023-05-20T16:55:36.671Z,19.59
2023-05-20T16:58:57.606Z,19.45
2023-05-20T17:02:18.619Z,19.19
2023-05-20T17:05:39.534Z,19.15
2023-05-20T17:09:05.349Z,19.31
2023-05-20T17:12:26.403Z,19.31
2023-05-20T17:15:47.298Z,19.18
2023-05-20T17:18:56.684Z,19.11
2023-05-20T17:22:08.594Z,19.07
2023-05-20T17:25:18.109Z,18.86
2023-05-20T17:28:24.421Z,18.70
2023-05-20T17:31:31.192Z,18.65
2023-05-20T17:34:37.240Z,18.53
2023-05-20T17:37:44.108Z,18.34
2023-05-20T17:40:52.726Z,18.49
2023-05-20T17:43:59.715Z,18.35
2023-05-20T17:47:12.046Z,18.28
2023-05-20T17:50:19.003Z,18.31
2023-05-20T17:53:30.589Z,18.14
2023-05-20T17:56:40.070Z,18.04
2023-05-20T17:59:46.281Z,17.94
2023-05-20T18:02:58.034Z,18.04
2023-05-20T18:06:06.441Z,18.05
2023-05-20T18:09:13.568Z,17.91
2023-05-20T18:12:22.196Z,17.80
2023-05-20T18:15:29.131Z,17.68
2023-05-20T18:18:35.588Z,17.52
2023-05-20T18:21:46.393Z,17.48
2023-05-20T18:24:53.037Z,17.44
2023-05-20T18:28:03.752Z,17.47
2023-05-20T18:31:10.993Z,17.43
2023-05-20T18:34:22.569Z,17.29
2023-05-20T18:37:29.271Z,17.22
2023-05-20T18:40:50.611Z,17.19
2023-05-20T18:44:14.507Z,17.06
2023-05-20T18:47:35.787Z,17.06
2023-05-20T18:50:57.165Z,17.00
2023-05-20T18:54:18.237Z,16.92
2023-05-20T18:57:39.595Z,16.82
2023-05-20T19:00:49.011Z,16.69
2023-05-20T19:03:55.633Z,16.59
2023-05-20T19:07:03.975Z,16.53
2023-05-20T19:10:12.615Z,16.56
2023-05-20T19:13:19.975Z,16.40
2023-05-20T19:16:29.663Z,16.47
2023-05-20T19:19:36.892Z,16.46
2023-05-20T19:22:43.499Z,16.37
2023-05-20T19:25:57.058Z,16.33
2023-05-20T19:29:03.302Z,16.23
2023-05-20T19:32:12.882Z,16.07
2023-05-20T19:35:19.521Z,15.97
2023-05-20T19:38:29.218Z,16.01
2023-05-20T19:41:35.442Z,16.07
2023-05-20T19:44:42.527Z,16.04
2023-05-20T19:47:51.403Z,16.05
2023-05-20T19:50:58.409Z,15.97
2023-05-20T19:54:04.736Z,15.81
2023-05-20T19:57:12.183Z,15.89
2023-05-20T20:00:19.230Z,15.83
2023-05-20T20:03:28.877Z,15.75
2023-05-20T20:06:35.091Z,15.70
2023-05-20T20:09:42.127Z,15.55
2023-05-20T20:12:50.228Z,15.56
2023-05-20T20:15:57.321Z,15.54
2023-05-20T20:19:23.228Z,15.39
2023-05-20T20:22:45.168Z,15.33
2023-05-20T20:26:06.174Z,15.25
2023-05-20T20:29:28.714Z,15.25
2023-05-20T20:32:50.761Z,15.21
2023-05-20T20:36:14.622Z,15.25
2023-05-20T20:39:23.118Z,15.16
2023-05-20T20:42:32.651Z,15.11
2023-05-20T20:45:41.022Z,15.04
2023-05-20T20:48:48.645Z,14.95
2023-05-20T20:51:58.210Z,14.74
2023-05-20T20:55:04.943Z,14.62
2023-05-20T20:58:12.611Z,14.48
2023-05-20T21:01:36.603Z,14.41
2023-05-20T21:04:59.561Z,14.34
2023-05-20T21:08:28.088Z,14.22
2023-05-20T21:11:49.649Z,14.21
2023-05-20T21:15:15.276Z,14.11
2023-05-20T21:18:36.282Z,13.99
2023-05-20T21:21:57.259Z,14.07
2023-05-20T21:25:21.321Z,14.00
2023-05-20T21:28:42.506Z,13.91
2023-05-20T21:32:03.531Z,13.83
2023-05-20T21:35:25.557Z,13.72
2023-05-20T21:38:50.196Z,13.75
2023-05-20T21:42:13.873Z,13.73
2023-05-20T21:45:35.756Z,13.76
2023-05-20T21:48:57.154Z,13.75
2023-05-20T21:52:20.781Z,13.69
2023-05-20T21:55:42.333Z,13.60
2023-05-20T21:59:06.012Z,13.60
2023-05-20T22:02:18.465Z,13.58
2023-05-20T22:05:25.040Z,13.39
2023-05-20T22:08:36.354Z,13.47
2023-05-20T22:11:45.397Z,13.44
2023-05-20T22:14:54.985Z,13.34
2023-05-20T22:18:05.320Z,13.44
2023-05-20T22:21:16.439Z,13.42
2023-05-20T22:24:22.479Z,13.37
2023-05-20T22:27:29.674Z,13.25
2023-05-20T22:30:38.648Z,13.23
2023-05-20T22:33:45.454Z,13.27
2023-05-20T22:36:53.816Z,13.18
2023-05-20T22:40:00.948Z,13.24
2023-05-20T22:43:06.985Z,13.14
2023-05-20T22:46:16.486Z,13.10
2023-05-20T22:49:24.076Z,12.96
2023-05-20T22:52:31.089Z,12.95
2023-05-20T22:55:39.029Z,12.97
2023-05-20T22:58:46.106Z,12.94
2023-05-20T23:01:59.517Z,12.83
2023-05-20T23:05:06.986Z,12.95
2023-05-20T23:08:13.054Z,12.99
2023-05-20T23:11:20.059Z,13.06
2023-05-20T23:14:26.345Z,13.03
2023-05-20T23:17:36.174Z,12.99
2023-05-20T23:20:42.141Z,13.07
2023-05-20T23:23:49.013Z,13.08
2023-05-20T23:26:55.722Z,13.14
2023-05-20T23:30:08.739Z,13.05
2023-05-20T23:33:24.796Z,13.04
2023-05-20T23:36:34.826Z,12.90
2023-05-20T23:39:40.992Z,12.92
2023-05-20T23:42:47.876Z,12.98
2023-05-20T23:45:53.846Z,13.02
2023-05-20T23:49:03.428Z,13.08
2023-05-20T23:52:13.680Z,13.10
2023-05-20T23:55:20.514Z,13.14
2023-05-20T23:58:26.633Z,13.16
